createdAt,value
2018-09-19T00:00:00.932Z,6.10
2018-09-19T00:02:30.297Z,5.90
2018-09-19T00:04:59.638Z,5.55
2018-09-19T00:07:28.961Z,5.90
2018-09-19T00:09:58.408Z,5.60
2018-09-19T00:12:27.768Z,6.10
2018-09-19T00:14:57.155Z,6.30
2018-09-19T00:17:26.575Z,4.90
2018-09-19T00:19:55.946Z,6.10
2018-09-19T00:22:25.300Z,5.42
2018-09-19T00:24:54.663Z,6.00
2018-09-19T00:27:24.755Z,5.53
2018-09-19T00:29:54.113Z,6.30
2018-09-19T00:32:23.534Z,6.03
2018-09-19T00:34:52.956Z,5.60
2018-09-19T00:37:22.298Z,5.40
2018-09-19T00:39:51.710Z,5.70
2018-09-19T00:42:21.136Z,5.25
2018-09-19T00:44:50.519Z,6.22
2018-09-19T00:47:19.917Z,5.72
2018-09-19T00:49:49.268Z,6.08
2018-09-19T00:52:18.754Z,5.50
2018-09-19T00:54:48.183Z,6.35
2018-09-19T00:57:17.707Z,6.53
2018-09-19T00:59:47.179Z,5.20
2018-09-19T01:02:16.576Z,5.70
2018-09-19T01:04:45.910Z,5.80
2018-09-19T01:07:15.303Z,6.22
2018-09-19T01:09:44.661Z,5.78
2018-09-19T01:12:13.997Z,5.62
2018-09-19T01:14:43.446Z,6.40
2018-09-19T01:17:12.909Z,6.65
2018-09-19T01:19:42.293Z,6.78
2018-09-19T01:22:11.634Z,5.87
2018-09-19T01:24:41.009Z,7.20
2018-09-19T01:27:10.385Z,7.10
2018-09-19T01:29:39.773Z,7.00
2018-09-19T01:32:09.098Z,6.10
2018-09-19T01:34:38.466Z,7.10
2018-09-19T01:37:07.833Z,5.60
2018-09-19T01:39:37.229Z,7.60
2018-09-19T01:42:06.680Z,6.20
2018-09-19T01:44:36.080Z,7.40
2018-09-19T01:47:05.464Z,6.97
2018-09-19T01:49:34.838Z,6.30
2018-09-19T01:52:04.240Z,7.22
2018-09-19T01:54:33.703Z,6.70
2018-09-19T01:57:03.067Z,5.85
2018-09-19T01:59:32.471Z,7.05
2018-09-19T02:02:01.832Z,6.97
2018-09-19T02:04:31.183Z,6.50
2018-09-19T02:07:00.583Z,7.58
2018-09-19T02:09:30.032Z,7.17
2018-09-19T02:11:59.375Z,7.25
2018-09-19T02:14:28.766Z,7.50
2018-09-19T02:16:58.184Z,7.05
2018-09-19T02:19:27.561Z,6.50
2018-09-19T02:21:56.944Z,6.45
2018-09-19T02:24:26.327Z,7.20
2018-09-19T02:26:55.725Z,6.45
2018-09-19T02:29:25.085Z,7.78
2018-09-19T02:31:54.557Z,6.80
2018-09-19T02:34:23.935Z,6.40
2018-09-19T02:36:53.337Z,6.37
2018-09-19T02:39:22.764Z,7.60
2018-09-19T02:41:52.181Z,6.22
2018-09-19T02:44:21.607Z,6.85
2018-09-19T02:46:51.006Z,6.28
2018-09-19T02:49:20.439Z,6.60
2018-09-19T02:51:49.866Z,6.85
2018-09-19T02:54:19.254Z,5.87
2018-09-19T02:56:48.761Z,6.97
2018-09-19T02:59:18.274Z,5.70
2018-09-19T03:01:47.639Z,6.97
2018-09-19T03:04:17.116Z,7.45
2018-09-19T03:06:46.473Z,6.10
2018-09-19T03:09:15.899Z,5.78
2018-09-19T03:11:45.325Z,6.00
2018-09-19T03:14:14.703Z,6.30
2018-09-19T03:16:44.064Z,6.65
2018-09-19T03:19:13.537Z,7.03
2018-09-19T03:21:43.976Z,6.65
2018-09-19T03:24:13.381Z,6.17
2018-09-19T03:26:43.735Z,7.00
2018-09-19T03:29:13.125Z,5.75
2018-09-19T03:31:42.614Z,6.00
2018-09-19T03:34:12.062Z,6.40
2018-09-19T03:36:41.503Z,5.60
2018-09-19T03:39:11.851Z,6.33
2018-09-19T03:41:41.392Z,5.55
2018-09-19T03:44:10.848Z,6.10
2018-09-19T03:46:40.265Z,6.25
2018-09-19T03:49:09.942Z,5.67
2018-09-19T03:51:39.611Z,5.90
2018-09-19T03:54:09.361Z,5.55
2018-09-19T03:56:38.774Z,6.00
2018-09-19T03:59:08.428Z,7.10
2018-09-19T04:01:37.885Z,6.25
2018-09-19T04:04:07.303Z,6.00
2018-09-19T04:06:36.788Z,6.55
2018-09-19T04:09:11.021Z,5.92
2018-09-19T04:11:40.506Z,5.70
2018-09-19T04:14:11.100Z,6.20
2018-09-19T04:16:40.910Z,5.45
2018-09-19T04:19:10.468Z,6.60
2018-09-19T04:21:46.980Z,5.85
2018-09-19T04:24:16.424Z,6.00
2018-09-19T04:26:46.356Z,6.90
2018-09-19T04:29:16.089Z,5.55
2018-09-19T04:31:45.823Z,5.62
2018-09-19T04:34:16.059Z,5.33
2018-09-19T04:36:45.653Z,6.10
2018-09-19T04:39:15.196Z,6.72
2018-09-19T04:41:44.647Z,5.92
2018-09-19T04:44:14.162Z,5.92
2018-09-19T04:46:43.706Z,5.58
2018-09-19T04:49:13.199Z,7.45
2018-09-19T04:51:42.681Z,5.33
2018-09-19T04:54:12.103Z,5.83
2018-09-19T04:56:41.486Z,5.83
2018-09-19T04:59:10.890Z,6.00
2018-09-19T05:01:40.323Z,5.70
2018-09-19T05:04:09.758Z,5.53
2018-09-19T05:06:39.198Z,5.55
2018-09-19T05:09:10.110Z,6.05
2018-09-19T05:11:39.473Z,6.80
2018-09-19T05:14:09.295Z,6.17
2018-09-19T05:16:38.676Z,5.30
2018-09-19T05:19:08.095Z,6.17
2018-09-19T05:21:37.505Z,5.87
2018-09-19T05:24:06.913Z,6.03
2018-09-19T05:26:36.918Z,6.47
2018-09-19T05:29:06.264Z,6.10
2018-09-19T05:31:35.777Z,5.78
2018-09-19T05:34:05.119Z,6.12
2018-09-19T05:36:34.484Z,5.47
2018-09-19T05:39:05.479Z,6.00
2018-09-19T05:41:34.850Z,5.78
2018-09-19T05:44:04.207Z,5.53
2018-09-19T05:46:33.559Z,6.20
2018-09-19T05:49:02.950Z,5.33
2018-09-19T05:51:32.348Z,4.50
2018-09-19T05:54:01.877Z,5.30
2018-09-19T05:56:31.456Z,5.60
2018-09-19T05:59:00.867Z,5.33
2018-09-19T06:01:30.284Z,5.80
2018-09-19T06:03:59.692Z,6.35
2018-09-19T06:06:29.121Z,5.03
2018-09-19T06:08:58.496Z,5.25
2018-09-19T06:11:27.882Z,5.95
2018-09-19T06:13:57.372Z,5.60
2018-09-19T06:16:26.776Z,5.20
2018-09-19T06:18:56.186Z,5.53
2018-09-19T06:21:25.552Z,5.70
2018-09-19T06:23:54.971Z,5.92
2018-09-19T06:26:24.356Z,5.72
2018-09-19T06:28:54.026Z,5.70
2018-09-19T06:31:24.057Z,5.62
2018-09-19T06:33:53.513Z,5.35
2018-09-19T06:36:22.947Z,5.80
2018-09-19T06:38:52.398Z,5.28
2018-09-19T06:41:21.819Z,6.37
2018-09-19T06:43:51.216Z,5.78
2018-09-19T06:46:20.646Z,5.92
2018-09-19T06:48:50.022Z,5.12
2018-09-19T06:51:19.405Z,6.08
2018-09-19T06:53:48.840Z,5.53
2018-09-19T06:56:18.372Z,5.58
2018-09-19T06:58:47.816Z,5.50
2018-09-19T07:01:17.251Z,5.60
2018-09-19T07:03:46.636Z,5.30
2018-09-19T07:06:15.978Z,5.90
2018-09-19T07:08:45.325Z,5.47
2018-09-19T07:11:14.683Z,5.60
2018-09-19T07:13:44.053Z,5.72
2018-09-19T07:16:13.411Z,5.37
2018-09-19T07:18:42.883Z,5.85
2018-09-19T07:21:12.215Z,7.28
2018-09-19T07:23:41.734Z,6.30
2018-09-19T07:26:11.042Z,8.18
2018-09-19T07:28:40.443Z,7.30
2018-09-19T07:31:09.898Z,6.47
2018-09-19T07:33:39.230Z,5.92
2018-09-19T07:36:08.624Z,6.97
2018-09-19T07:38:37.995Z,6.97
2018-09-19T07:41:07.434Z,5.72
2018-09-19T07:43:36.796Z,6.10
2018-09-19T07:46:07.068Z,5.92
2018-09-19T07:48:36.432Z,6.67
2018-09-19T07:51:06.361Z,5.95
2018-09-19T07:53:36.314Z,5.97
2018-09-19T07:56:05.707Z,5.75
2018-09-19T07:58:35.228Z,5.53
2018-09-19T08:01:04.688Z,6.08
2018-09-19T08:03:34.053Z,5.60
2018-09-19T08:06:03.723Z,6.40
2018-09-19T08:08:33.092Z,6.30
2018-09-19T08:11:02.522Z,6.00
2018-09-19T08:13:31.895Z,6.22
2018-09-19T08:16:01.264Z,5.17
2018-09-19T08:18:30.692Z,5.75
2018-09-19T08:21:00.072Z,5.03
2018-09-19T08:23:29.488Z,5.95
2018-09-19T08:25:58.907Z,5.50
2018-09-19T08:28:28.269Z,6.25
2018-09-19T08:30:57.699Z,5.83
2018-09-19T08:33:27.118Z,5.35
2018-09-19T08:35:56.415Z,5.45
2018-09-19T08:38:25.775Z,5.47
2018-09-19T08:40:55.161Z,4.65
2018-09-19T08:43:24.559Z,5.45
2018-09-19T08:45:53.922Z,5.12
2018-09-19T08:48:23.312Z,5.03
2018-09-19T08:50:52.641Z,5.10
2018-09-19T08:53:22.062Z,5.22
2018-09-19T08:55:51.475Z,5.67
2018-09-19T08:58:20.854Z,5.70
2018-09-19T09:00:50.312Z,5.20
2018-09-19T09:03:19.674Z,6.05
2018-09-19T09:05:49.121Z,4.97
2018-09-19T09:08:18.571Z,5.05
2018-09-19T09:10:47.972Z,5.08
2018-09-19T09:13:17.329Z,4.97
2018-09-19T09:15:46.746Z,4.72
2018-09-19T09:18:16.126Z,5.30
2018-09-19T09:20:45.693Z,5.03
2018-09-19T09:23:15.115Z,4.90
2018-09-19T09:25:44.548Z,4.33
2018-09-19T09:28:13.948Z,4.62
2018-09-19T09:30:43.327Z,4.40
2018-09-19T09:33:12.733Z,5.65
2018-09-19T09:35:42.240Z,4.50
2018-09-19T09:38:11.606Z,4.95
2018-09-19T09:40:41.011Z,4.60
2018-09-19T09:43:10.465Z,4.40
2018-09-19T09:45:39.839Z,4.70
2018-09-19T09:48:09.249Z,3.90
2018-09-19T09:50:38.643Z,5.28
2018-09-19T09:53:08.088Z,5.22
2018-09-19T09:55:37.439Z,5.15
2018-09-19T09:58:06.866Z,4.40
2018-09-19T10:00:43.127Z,4.50
2018-09-19T10:03:13.115Z,4.50
2018-09-19T10:05:42.499Z,4.28
2018-09-19T10:08:11.912Z,4.80
2018-09-19T10:10:41.305Z,4.28
2018-09-19T10:13:10.687Z,4.35
2018-09-19T10:15:40.070Z,4.50
2018-09-19T10:18:09.505Z,4.45
2018-09-19T10:20:39.057Z,3.90
2018-09-19T10:23:08.483Z,4.12
2018-09-19T10:25:37.932Z,3.98
2018-09-19T10:28:07.382Z,4.22
2018-09-19T10:30:36.852Z,4.20
2018-09-19T10:33:06.198Z,4.47
2018-09-19T10:35:35.611Z,4.50
2018-09-19T10:38:04.952Z,4.15
2018-09-19T10:40:34.360Z,4.25
2018-09-19T10:43:03.740Z,4.53
2018-09-19T10:45:33.109Z,4.00
2018-09-19T10:48:02.509Z,4.72
2018-09-19T10:50:31.927Z,4.25
2018-09-19T10:53:01.312Z,4.62
2018-09-19T10:55:30.807Z,4.50
2018-09-19T10:58:00.391Z,4.65
2018-09-19T11:00:29.847Z,3.90
2018-09-19T11:02:59.255Z,4.40
2018-09-19T11:05:28.664Z,4.33
2018-09-19T11:07:58.050Z,3.77
2018-09-19T11:10:27.479Z,4.40
2018-09-19T11:12:56.897Z,4.40
2018-09-19T11:15:26.353Z,4.00
2018-09-19T11:17:55.775Z,4.25
2018-09-19T11:20:25.822Z,4.65
2018-09-19T11:22:55.215Z,5.05
2018-09-19T11:25:25.545Z,4.70
2018-09-19T11:27:54.994Z,4.40
2018-09-19T11:30:24.424Z,4.22
2018-09-19T11:32:53.778Z,4.20
2018-09-19T11:35:23.174Z,4.80
2018-09-19T11:37:52.607Z,5.50
2018-09-19T11:40:22.162Z,4.73
2018-09-19T11:42:51.961Z,4.50
2018-09-19T11:45:21.576Z,4.70
2018-09-19T11:47:51.014Z,25.23
2018-09-19T11:50:20.434Z,4.47
2018-09-19T11:52:49.916Z,5.10
2018-09-19T11:55:19.324Z,8.55
2018-09-19T11:57:48.753Z,4.58
2018-09-19T12:00:18.227Z,4.93
2018-09-19T12:02:47.593Z,4.40
2018-09-19T12:05:16.899Z,4.47
2018-09-19T12:07:46.270Z,4.80
2018-09-19T12:10:16.085Z,4.60
2018-09-19T12:12:45.480Z,3.93
2018-09-19T12:15:14.965Z,4.70
2018-09-19T12:17:44.408Z,5.05
2018-09-19T12:20:13.879Z,4.80
2018-09-19T12:22:43.293Z,5.40
2018-09-19T12:25:13.576Z,5.60
2018-09-19T12:27:42.981Z,4.90
2018-09-19T12:30:12.467Z,4.80
2018-09-19T12:32:41.893Z,4.43
2018-09-19T12:35:11.275Z,4.20
2018-09-19T12:37:40.656Z,5.05
2018-09-19T12:40:10.072Z,4.97
2018-09-19T12:42:39.454Z,5.37
2018-09-19T12:45:09.051Z,5.13
2018-09-19T12:47:38.386Z,4.33
2018-09-19T12:50:07.797Z,4.90
2018-09-19T12:52:37.189Z,4.87
2018-09-19T12:55:06.731Z,5.40
2018-09-19T12:57:36.143Z,5.70
2018-09-19T13:00:05.690Z,5.20
2018-09-19T13:02:35.898Z,5.03
2018-09-19T13:05:05.312Z,4.90
2018-09-19T13:07:35.152Z,4.57
2018-09-19T13:10:04.669Z,4.60
2018-09-19T13:12:33.981Z,4.63
2018-09-19T13:15:03.349Z,4.90
2018-09-19T13:17:32.715Z,4.83
2018-09-19T13:20:02.093Z,5.27
2018-09-19T13:22:31.467Z,4.90
2018-09-19T13:25:00.899Z,5.37
2018-09-19T13:27:30.296Z,4.70
2018-09-19T13:29:59.659Z,4.57
2018-09-19T13:32:29.064Z,4.77
2018-09-19T13:34:58.526Z,5.08
2018-09-19T13:37:27.917Z,5.00
2018-09-19T13:39:57.319Z,5.13
2018-09-19T13:42:26.706Z,4.95
2018-09-19T13:44:56.089Z,5.30
2018-09-19T13:47:25.459Z,5.37
2018-09-19T13:50:00.452Z,5.27
2018-09-19T13:52:29.857Z,5.07
2018-09-19T13:54:59.207Z,5.90
2018-09-19T13:57:28.613Z,5.00
2018-09-19T13:59:58.045Z,4.90
2018-09-19T14:02:27.461Z,5.03
2018-09-19T14:04:56.934Z,5.37
2018-09-19T14:07:26.343Z,6.10
2018-09-19T14:09:55.762Z,6.47
2018-09-19T14:12:25.237Z,5.00
2018-09-19T14:14:54.559Z,5.73
2018-09-19T14:17:23.908Z,4.90
2018-09-19T14:19:53.407Z,5.60
2018-09-19T14:22:23.444Z,5.03
2018-09-19T14:24:52.869Z,5.50
2018-09-19T14:27:22.255Z,5.97
2018-09-19T14:29:51.663Z,5.50
2018-09-19T14:32:21.034Z,5.80
2018-09-19T14:34:50.409Z,5.50
2018-09-19T14:37:19.841Z,5.50
2018-09-19T14:39:49.372Z,5.33
2018-09-19T14:42:18.804Z,4.50
2018-09-19T14:44:48.215Z,4.70
2018-09-19T14:47:17.712Z,4.47
2018-09-19T14:49:47.251Z,4.80
2018-09-19T14:52:16.683Z,4.97
2018-09-19T14:54:46.102Z,4.47
2018-09-19T14:57:15.512Z,5.07
2018-09-19T14:59:45.488Z,4.70
2018-09-19T15:02:14.883Z,5.00
2018-09-19T15:04:44.559Z,5.00
2018-09-19T15:07:13.997Z,5.10
2018-09-19T15:09:43.386Z,5.83
2018-09-19T15:12:12.715Z,5.23
2018-09-19T15:14:42.196Z,5.30
2018-09-19T15:17:11.643Z,5.20
2018-09-19T15:19:41.061Z,5.70
2018-09-19T15:22:11.118Z,4.93
2018-09-19T15:24:40.541Z,5.40
2018-09-19T15:27:09.968Z,5.40
2018-09-19T15:29:39.328Z,5.20
2018-09-19T15:32:08.852Z,5.00
2018-09-19T15:34:38.245Z,4.33
2018-09-19T15:37:08.007Z,5.20
2018-09-19T15:39:37.386Z,4.70
2018-09-19T15:42:06.865Z,5.20
2018-09-19T15:44:36.268Z,5.20
2018-09-19T15:47:05.741Z,5.17
2018-09-19T15:49:35.174Z,5.90
2018-09-19T15:52:04.641Z,5.70
2018-09-19T15:54:34.075Z,4.97
2018-09-19T15:57:03.607Z,5.83
2018-09-19T15:59:33.006Z,5.60
2018-09-19T16:02:02.390Z,5.70
2018-09-19T16:04:31.792Z,5.23
2018-09-19T16:07:01.378Z,4.90
2018-09-19T16:09:30.871Z,5.47
2018-09-19T16:12:00.261Z,5.70
2018-09-19T16:14:29.682Z,5.80
2018-09-19T16:16:59.073Z,5.70
2018-09-19T16:19:28.576Z,5.47
2018-09-19T16:21:57.975Z,5.67
2018-09-19T16:24:27.401Z,5.87
2018-09-19T16:26:56.811Z,5.10
2018-09-19T16:29:26.951Z,5.60
2018-09-19T16:31:59.567Z,5.50
2018-09-19T16:34:29.043Z,5.23
2018-09-19T16:37:01.593Z,5.78
2018-09-19T16:39:33.040Z,5.60
2018-09-19T16:42:02.553Z,5.90
2018-09-19T16:44:32.079Z,5.80
2018-09-19T16:47:01.611Z,6.47
2018-09-19T16:49:31.047Z,6.10
2018-09-19T16:52:00.395Z,6.20
2018-09-19T16:54:29.835Z,6.17
2018-09-19T16:56:59.203Z,5.53
2018-09-19T16:59:28.606Z,5.80
2018-09-19T17:01:58.063Z,5.70
2018-09-19T17:04:27.492Z,5.83
2018-09-19T17:06:56.906Z,5.83
2018-09-19T17:09:26.378Z,6.73
2018-09-19T17:11:55.713Z,5.90
2018-09-19T17:14:25.155Z,6.30
2018-09-19T17:16:54.637Z,6.12
2018-09-19T17:19:24.996Z,6.77
2018-09-19T17:21:55.028Z,6.33
2018-09-19T17:24:24.454Z,6.47
2018-09-19T17:26:55.054Z,6.17
2018-09-19T17:29:24.591Z,6.60
2018-09-19T17:31:54.089Z,6.67
2018-09-19T17:34:23.517Z,5.55
2018-09-19T17:36:53.021Z,5.65
2018-09-19T17:39:22.421Z,6.40
2018-09-19T17:41:51.910Z,6.35
2018-09-19T17:44:21.361Z,6.62
2018-09-19T17:46:50.823Z,6.75
2018-09-19T17:49:20.267Z,7.70
2018-09-19T17:51:49.641Z,8.90
2018-09-19T17:54:18.987Z,6.47
2018-09-19T17:56:48.387Z,8.13
2018-09-19T17:59:17.834Z,7.33
2018-09-19T18:01:47.343Z,7.10
2018-09-19T18:04:16.757Z,6.55
2018-09-19T18:06:46.216Z,6.80
2018-09-19T18:09:15.660Z,8.08
2018-09-19T18:11:45.026Z,7.42
2018-09-19T18:14:14.452Z,7.70
2018-09-19T18:16:43.853Z,7.83
2018-09-19T18:19:13.207Z,7.95
2018-09-19T18:21:42.702Z,7.37
2018-09-19T18:24:12.083Z,7.12
2018-09-19T18:26:41.554Z,7.70
2018-09-19T18:29:11.161Z,7.83
2018-09-19T18:31:40.681Z,7.30
2018-09-19T18:34:10.126Z,8.48
2018-09-19T18:36:39.532Z,8.75
2018-09-19T18:39:08.984Z,7.45
2018-09-19T18:41:38.724Z,8.83
2018-09-19T18:44:08.112Z,9.33
2018-09-19T18:46:37.531Z,8.70
2018-09-19T18:49:06.991Z,8.75
2018-09-19T18:51:36.458Z,9.85
2018-09-19T18:54:05.823Z,8.75
2018-09-19T18:56:35.304Z,8.35
2018-09-19T18:59:04.705Z,8.20
2018-09-19T19:01:34.119Z,8.03
2018-09-19T19:04:03.490Z,8.35
2018-09-19T19:06:32.820Z,8.95
2018-09-19T19:09:02.205Z,9.13
2018-09-19T19:11:32.539Z,9.55
2018-09-19T19:14:01.997Z,8.98
2018-09-19T19:16:31.389Z,7.95
2018-09-19T19:19:00.981Z,9.33
2018-09-19T19:21:31.139Z,8.90
2018-09-19T19:24:00.533Z,8.65
2018-09-19T19:26:29.905Z,8.78
2018-09-19T19:28:59.430Z,9.25
2018-09-19T19:31:29.057Z,8.55
2018-09-19T19:33:58.555Z,8.38
2018-09-19T19:36:28.029Z,8.35
2018-09-19T19:38:57.508Z,9.55
2018-09-19T19:41:26.907Z,10.25
2018-09-19T19:43:56.270Z,9.68
2018-09-19T19:46:25.719Z,9.93
2018-09-19T19:48:55.044Z,9.13
2018-09-19T19:51:24.477Z,9.73
2018-09-19T19:53:53.950Z,9.90
2018-09-19T19:56:23.351Z,9.50
2018-09-19T19:58:52.798Z,10.08
2018-09-19T20:01:22.221Z,10.00
2018-09-19T20:03:51.682Z,9.95
2018-09-19T20:06:21.048Z,9.48
2018-09-19T20:08:50.515Z,10.00
2018-09-19T20:11:19.858Z,10.50
2018-09-19T20:13:49.325Z,9.73
2018-09-19T20:16:18.900Z,10.20
2018-09-19T20:18:49.402Z,10.10
2018-09-19T20:21:18.775Z,9.15
2018-09-19T20:23:48.153Z,10.08
2018-09-19T20:26:17.547Z,9.90
2018-09-19T20:28:46.932Z,9.78
2018-09-19T20:31:16.300Z,10.70
2018-09-19T20:33:45.701Z,10.03
2018-09-19T20:36:15.063Z,9.95
2018-09-19T20:38:44.436Z,9.95
2018-09-19T20:41:13.832Z,10.18
2018-09-19T20:43:43.353Z,9.75
2018-09-19T20:46:12.719Z,11.10
2018-09-19T20:48:42.081Z,8.85
2018-09-19T20:51:11.569Z,10.15
2018-09-19T20:53:40.950Z,9.25
2018-09-19T20:56:10.332Z,9.68
2018-09-19T20:58:39.816Z,10.70
2018-09-19T21:01:09.252Z,10.23
2018-09-19T21:03:38.660Z,9.65
2018-09-19T21:06:08.079Z,10.63
2018-09-19T21:08:37.438Z,9.20
2018-09-19T21:11:06.831Z,9.68
2018-09-19T21:13:36.167Z,9.00
2018-09-19T21:16:05.514Z,9.55
2018-09-19T21:18:34.907Z,10.40
2018-09-19T21:21:04.275Z,10.15
2018-09-19T21:23:33.668Z,9.33
2018-09-19T21:26:03.065Z,9.60
2018-09-19T21:28:32.538Z,8.95
2018-09-19T21:31:01.929Z,9.45
2018-09-19T21:33:31.419Z,9.60
2018-09-19T21:36:00.804Z,10.13
2018-09-19T21:38:30.251Z,10.30
2018-09-19T21:40:59.707Z,10.90
2018-09-19T21:43:29.108Z,10.13
2018-09-19T21:45:58.671Z,10.88
2018-09-19T21:48:28.072Z,10.95
2018-09-19T21:50:57.406Z,10.75
2018-09-19T21:53:26.846Z,10.28
2018-09-19T21:55:56.179Z,11.05
2018-09-19T21:58:25.612Z,10.72
2018-09-19T22:01:00.429Z,10.08
2018-09-19T22:03:29.864Z,9.93
2018-09-19T22:05:59.277Z,9.50
2018-09-19T22:08:28.732Z,11.48
2018-09-19T22:10:58.621Z,10.90
2018-09-19T22:13:28.074Z,11.08
2018-09-19T22:15:57.437Z,10.35
2018-09-19T22:18:26.738Z,10.88
2018-09-19T22:20:56.092Z,9.80
2018-09-19T22:23:25.503Z,9.85
2018-09-19T22:25:54.933Z,11.35
2018-09-19T22:28:24.290Z,11.50
2018-09-19T22:30:53.746Z,10.72
2018-09-19T22:33:23.133Z,10.28
2018-09-19T22:35:52.543Z,9.48
2018-09-19T22:38:22.489Z,9.20
2018-09-19T22:40:51.921Z,10.95
2018-09-19T22:43:21.561Z,9.70
2018-09-19T22:45:50.989Z,9.80
2018-09-19T22:48:20.344Z,10.08
2018-09-19T22:50:49.707Z,11.63
2018-09-19T22:53:19.055Z,11.43
2018-09-19T22:55:48.462Z,10.58
2018-09-19T22:58:17.883Z,11.05
2018-09-19T23:00:47.229Z,10.35
2018-09-19T23:03:16.563Z,10.85
2018-09-19T23:05:45.977Z,10.75
2018-09-19T23:08:15.397Z,10.20
2018-09-19T23:10:44.736Z,10.82
2018-09-19T23:13:14.255Z,11.10
2018-09-19T23:15:43.796Z,10.05
2018-09-19T23:18:13.182Z,10.53
2018-09-19T23:20:42.539Z,9.83
2018-09-19T23:23:11.972Z,10.08
2018-09-19T23:25:41.394Z,10.55
2018-09-19T23:28:10.789Z,10.10
2018-09-19T23:30:40.325Z,9.53
2018-09-19T23:33:09.783Z,9.60
2018-09-19T23:35:39.228Z,10.32
2018-09-19T23:38:08.641Z,10.13
2018-09-19T23:40:38.052Z,9.90
2018-09-19T23:43:07.495Z,9.50
2018-09-19T23:45:36.901Z,10.25
2018-09-19T23:48:06.360Z,10.28
2018-09-19T23:50:35.721Z,9.20
2018-09-19T23:53:05.133Z,9.48
2018-09-19T23:55:34.547Z,10.13
2018-09-19T23:58:03.904Z,10.50
